Blue, Texas
Current Conditions -  °F | °C
As of 9:35 AM on Thursday 30 Oct 2014 (Local Time) from KGYB Reporting Station
Scattered Clouds Scattered Clouds  
Wind Chill: 63°   Ceiling: Unl
Heat Index: 63°   Visibility: 10mi
Dew Point: 53°   Wind: 6mph
Humidity: 70%   Direction: 90°E
Pressure: 30.19"   Gusts: NA
Location:  30.4292°N, 97.0703°W
Report Text: KGYB 301435Z AUTO 09005KT 10SM SCT045 17/12 A3019 RMK AO2 T01710115
Loading
Personal Weather Stations






























Interactive Weather Map
Tropical Storm Tracking
New forecast layout! Learn more

10-Day Weather Forecast

Advertisements
Track Severe Weather on mobile